sensor_id;sensor_type;location;lat;lon;timestamp;temperature;humidity
21672;DHT22;10997;52.242;8.168;2022-12-16T00:02:45;-6.40;99.90
21672;DHT22;10997;52.242;8.168;2022-12-16T00:07:47;-6.50;99.90
21672;DHT22;10997;52.242;8.168;2022-12-16T00:12:47;-6.50;99.90
21672;DHT22;10997;52.242;8.168;2022-12-16T00:17:48;-6.50;99.90
21672;DHT22;10997;52.242;8.168;2022-12-16T00:22:50;-6.60;99.90
21672;DHT22;10997;52.242;8.168;2022-12-16T00:27:51;-6.60;99.90
21672;DHT22;10997;52.242;8.168;2022-12-16T00:32:51;-6.60;99.90
21672;DHT22;10997;52.242;8.168;2022-12-16T00:37:52;-6.60;99.90
21672;DHT22;10997;52.242;8.168;2022-12-16T00:42:53;-6.60;99.90
21672;DHT22;10997;52.242;8.168;2022-12-16T00:47:53;-6.60;99.90
21672;DHT22;10997;52.242;8.168;2022-12-16T00:52:54;-6.60;99.90
21672;DHT22;10997;52.242;8.168;2022-12-16T00:57:55;-6.50;99.90
21672;DHT22;10997;52.242;8.168;2022-12-16T01:02:56;-6.50;99.90
21672;DHT22;10997;52.242;8.168;2022-12-16T01:07:57;-6.50;99.90
21672;DHT22;10997;52.242;8.168;2022-12-16T01:12:57;-6.50;99.90
21672;DHT22;10997;52.242;8.168;2022-12-16T01:17:58;-6.50;99.90
21672;DHT22;10997;52.242;8.168;2022-12-16T01:22:59;-6.50;99.90
21672;DHT22;10997;52.242;8.168;2022-12-16T01:27:59;-6.50;99.90
21672;DHT22;10997;52.242;8.168;2022-12-16T01:33:00;-6.40;99.90
21672;DHT22;10997;52.242;8.168;2022-12-16T01:38:00;-6.40;99.90
21672;DHT22;10997;52.242;8.168;2022-12-16T01:43:01;-6.30;99.90
21672;DHT22;10997;52.242;8.168;2022-12-16T01:53:21;-6.20;99.90
21672;DHT22;10997;52.242;8.168;2022-12-16T01:58:25;-6.30;99.90
21672;DHT22;10997;52.242;8.168;2022-12-16T02:03:29;-6.30;99.90
21672;DHT22;10997;52.242;8.168;2022-12-16T02:08:31;-6.30;99.90
21672;DHT22;10997;52.242;8.168;2022-12-16T02:13:51;-6.30;99.90
21672;DHT22;10997;52.242;8.168;2022-12-16T02:29:36;-6.40;99.90
21672;DHT22;10997;52.242;8.168;2022-12-16T02:40:41;-6.40;99.90
21672;DHT22;10997;52.242;8.168;2022-12-16T02:45:43;-6.40;99.90
21672;DHT22;10997;52.242;8.168;2022-12-16T02:50:48;-6.40;99.90
21672;DHT22;10997;52.242;8.168;2022-12-16T03:01:38;-6.60;99.90
21672;DHT22;10997;52.242;8.168;2022-12-16T03:06:44;-6.70;99.90
21672;DHT22;10997;52.242;8.168;2022-12-16T03:11:46;-6.80;99.90
21672;DHT22;10997;52.242;8.168;2022-12-16T03:16:49;-6.90;99.90
21672;DHT22;10997;52.242;8.168;2022-12-16T03:27:15;-6.90;99.90
21672;DHT22;10997;52.242;8.168;2022-12-16T03:32:32;-7.10;99.90
21672;DHT22;10997;52.242;8.168;2022-12-16T03:37:36;-7.10;99.90
21672;DHT22;10997;52.242;8.168;2022-12-16T03:42:38;-7.10;99.90
21672;DHT22;10997;52.242;8.168;2022-12-16T03:47:40;-7.10;99.90
21672;DHT22;10997;52.242;8.168;2022-12-16T03:52:42;-7.20;99.90
21672;DHT22;10997;52.242;8.168;2022-12-16T03:57:42;-7.20;99.90
21672;DHT22;10997;52.242;8.168;2022-12-16T04:02:43;-7.30;99.90
21672;DHT22;10997;52.242;8.168;2022-12-16T04:07:44;-7.20;99.90
21672;DHT22;10997;52.242;8.168;2022-12-16T04:12:44;-7.30;99.90
21672;DHT22;10997;52.242;8.168;2022-12-16T04:18:04;-7.20;99.90
21672;DHT22;10997;52.242;8.168;2022-12-16T04:23:25;-7.20;99.90
21672;DHT22;10997;52.242;8.168;2022-12-16T04:28:45;-7.20;99.90
21672;DHT22;10997;52.242;8.168;2022-12-16T04:33:46;-7.30;99.90
21672;DHT22;10997;52.242;8.168;2022-12-16T04:39:06;-7.50;99.90
21672;DHT22;10997;52.242;8.168;2022-12-16T04:44:25;-7.70;99.90
21672;DHT22;10997;52.242;8.168;2022-12-16T04:49:44;-7.70;99.90
21672;DHT22;10997;52.242;8.168;2022-12-16T04:55:04;-7.60;99.90
21672;DHT22;10997;52.242;8.168;2022-12-16T05:00:24;-7.50;99.90
21672;DHT22;10997;52.242;8.168;2022-12-16T05:05:43;-7.50;99.90
21672;DHT22;10997;52.242;8.168;2022-12-16T05:11:02;-7.40;99.90
21672;DHT22;10997;52.242;8.168;2022-12-16T05:16:21;-7.50;99.90
21672;DHT22;10997;52.242;8.168;2022-12-16T05:21:40;-7.50;99.90
21672;DHT22;10997;52.242;8.168;2022-12-16T05:26:59;-7.60;99.90
21672;DHT22;10997;52.242;8.168;2022-12-16T05:32:18;-7.50;99.90
21672;DHT22;10997;52.242;8.168;2022-12-16T05:37:38;-7.50;99.90
21672;DHT22;10997;52.242;8.168;2022-12-16T05:42:57;-7.40;99.90
21672;DHT22;10997;52.242;8.168;2022-12-16T05:48:16;-7.30;99.90
21672;DHT22;10997;52.242;8.168;2022-12-16T05:53:35;-7.20;99.90
21672;DHT22;10997;52.242;8.168;2022-12-16T05:58:54;-7.30;99.90
21672;DHT22;10997;52.242;8.168;2022-12-16T06:04:13;-7.30;99.90
21672;DHT22;10997;52.242;8.168;2022-12-16T06:09:32;-7.60;99.90
21672;DHT22;10997;52.242;8.168;2022-12-16T06:14:51;-7.80;99.90
21672;DHT22;10997;52.242;8.168;2022-12-16T06:20:11;-7.80;99.90
21672;DHT22;10997;52.242;8.168;2022-12-16T06:25:30;-7.80;99.90
21672;DHT22;10997;52.242;8.168;2022-12-16T06:30:49;-7.90;99.90
21672;DHT22;10997;52.242;8.168;2022-12-16T06:36:08;-8.00;99.90
21672;DHT22;10997;52.242;8.168;2022-12-16T06:41:27;-8.00;99.90
21672;DHT22;10997;52.242;8.168;2022-12-16T06:46:46;-8.00;99.90
21672;DHT22;10997;52.242;8.168;2022-12-16T06:52:05;-8.00;99.90
21672;DHT22;10997;52.242;8.168;2022-12-16T06:57:25;-8.00;99.90
21672;DHT22;10997;52.242;8.168;2022-12-16T07:02:44;-8.00;99.90
21672;DHT22;10997;52.242;8.168;2022-12-16T07:08:03;-8.00;99.90
21672;DHT22;10997;52.242;8.168;2022-12-16T07:13:42;-8.00;99.90
21672;DHT22;10997;52.242;8.168;2022-12-16T07:19:01;-7.90;99.90
21672;DHT22;10997;52.242;8.168;2022-12-16T07:24:20;-7.90;99.90
21672;DHT22;10997;52.242;8.168;2022-12-16T07:29:39;-7.90;99.90
21672;DHT22;10997;52.242;8.168;2022-12-16T07:34:59;-7.90;99.90
21672;DHT22;10997;52.242;8.168;2022-12-16T07:40:18;-7.80;99.90
21672;DHT22;10997;52.242;8.168;2022-12-16T07:45:41;-7.70;99.90
21672;DHT22;10997;52.242;8.168;2022-12-16T07:51:01;-7.60;99.90
21672;DHT22;10997;52.242;8.168;2022-12-16T07:56:20;-7.50;99.90
21672;DHT22;10997;52.242;8.168;2022-12-16T08:01:39;-7.40;99.90
21672;DHT22;10997;52.242;8.168;2022-12-16T08:06:58;-7.20;99.90
21672;DHT22;10997;52.242;8.168;2022-12-16T08:12:17;-7.20;99.90
21672;DHT22;10997;52.242;8.168;2022-12-16T08:17:36;-7.00;99.90
21672;DHT22;10997;52.242;8.168;2022-12-16T08:23:12;-6.90;99.90
21672;DHT22;10997;52.242;8.168;2022-12-16T08:28:32;-6.70;99.90
21672;DHT22;10997;52.242;8.168;2022-12-16T08:33:51;-6.50;99.90
21672;DHT22;10997;52.242;8.168;2022-12-16T08:39:11;-6.30;99.90
21672;DHT22;10997;52.242;8.168;2022-12-16T08:44:30;-6.10;99.90
21672;DHT22;10997;52.242;8.168;2022-12-16T08:49:49;-5.80;99.90
21672;DHT22;10997;52.242;8.168;2022-12-16T08:55:08;-5.40;99.90
21672;DHT22;10997;52.242;8.168;2022-12-16T09:00:27;-5.20;99.90
21672;DHT22;10997;52.242;8.168;2022-12-16T09:05:47;-4.90;99.90
21672;DHT22;10997;52.242;8.168;2022-12-16T09:11:06;-4.70;99.90
21672;DHT22;10997;52.242;8.168;2022-12-16T09:16:25;-4.50;99.90
21672;DHT22;10997;52.242;8.168;2022-12-16T09:21:44;-4.40;99.90
21672;DHT22;10997;52.242;8.168;2022-12-16T09:27:03;-4.40;99.90
21672;DHT22;10997;52.242;8.168;2022-12-16T09:32:22;-4.30;99.90
21672;DHT22;10997;52.242;8.168;2022-12-16T09:37:49;-4.10;99.90
21672;DHT22;10997;52.242;8.168;2022-12-16T09:49:11;-3.90;99.90
21672;DHT22;10997;52.242;8.168;2022-12-16T09:54:46;-3.70;99.90
21672;DHT22;10997;52.242;8.168;2022-12-16T10:00:16;-3.50;99.90
21672;DHT22;10997;52.242;8.168;2022-12-16T10:17:11;-3.30;99.90
21672;DHT22;10997;52.242;8.168;2022-12-16T10:28:18;-3.10;99.90
21672;DHT22;10997;52.242;8.168;2022-12-16T10:33:44;-2.90;99.90
21672;DHT22;10997;52.242;8.168;2022-12-16T10:39:35;-2.60;99.90
21672;DHT22;10997;52.242;8.168;2022-12-16T10:44:59;-2.40;99.90
21672;DHT22;10997;52.242;8.168;2022-12-16T10:50:19;-2.30;99.90
21672;DHT22;10997;52.242;8.168;2022-12-16T11:01:32;-2.00;99.90
21672;DHT22;10997;52.242;8.168;2022-12-16T11:06:51;-1.80;99.90
21672;DHT22;10997;52.242;8.168;2022-12-16T11:17:32;-1.50;99.90
21672;DHT22;10997;52.242;8.168;2022-12-16T11:28:31;-1.20;99.90
21672;DHT22;10997;52.242;8.168;2022-12-16T11:33:51;-1.20;99.90
21672;DHT22;10997;52.242;8.168;2022-12-16T11:39:18;-1.10;99.90
21672;DHT22;10997;52.242;8.168;2022-12-16T11:44:47;-1.00;99.90
21672;DHT22;10997;52.242;8.168;2022-12-16T11:50:17;-0.90;99.90
21672;DHT22;10997;52.242;8.168;2022-12-16T11:55:40;-0.70;99.90
21672;DHT22;10997;52.242;8.168;2022-12-16T12:01:11;-0.60;99.90
21672;DHT22;10997;52.242;8.168;2022-12-16T12:18:10;-0.20;99.90
21672;DHT22;10997;52.242;8.168;2022-12-16T12:29:25;0.10;99.90
21672;DHT22;10997;52.242;8.168;2022-12-16T12:46:03;0.70;99.90
21672;DHT22;10997;52.242;8.168;2022-12-16T12:56:51;1.00;99.90
21672;DHT22;10997;52.242;8.168;2022-12-16T13:02:16;1.10;99.90
21672;DHT22;10997;52.242;8.168;2022-12-16T13:07:36;1.20;99.90
21672;DHT22;10997;52.242;8.168;2022-12-16T13:18:33;1.40;99.90
21672;DHT22;10997;52.242;8.168;2022-12-16T13:23:52;1.40;99.90
21672;DHT22;10997;52.242;8.168;2022-12-16T13:29:21;1.30;99.90
21672;DHT22;10997;52.242;8.168;2022-12-16T13:34:41;1.30;99.90
21672;DHT22;10997;52.242;8.168;2022-12-16T13:56:59;1.30;99.90
21672;DHT22;10997;52.242;8.168;2022-12-16T14:02:30;1.20;99.90
21672;DHT22;10997;52.242;8.168;2022-12-16T14:07:51;1.20;99.90
21672;DHT22;10997;52.242;8.168;2022-12-16T14:13:32;1.10;99.90
21672;DHT22;10997;52.242;8.168;2022-12-16T14:24:37;1.00;99.90
21672;DHT22;10997;52.242;8.168;2022-12-16T14:29:56;0.80;99.90
21672;DHT22;10997;52.242;8.168;2022-12-16T14:35:19;0.60;99.90
21672;DHT22;10997;52.242;8.168;2022-12-16T14:40:38;0.40;99.90
21672;DHT22;10997;52.242;8.168;2022-12-16T14:45:57;0.30;99.90
21672;DHT22;10997;52.242;8.168;2022-12-16T14:56:38;-0.20;99.90
21672;DHT22;10997;52.242;8.168;2022-12-16T15:07:36;-0.70;99.90
21672;DHT22;10997;52.242;8.168;2022-12-16T15:12:56;-0.90;99.90
21672;DHT22;10997;52.242;8.168;2022-12-16T15:18:20;-1.10;99.90
21672;DHT22;10997;52.242;8.168;2022-12-16T15:23:42;-1.20;99.90
21672;DHT22;10997;52.242;8.168;2022-12-16T15:29:01;-1.50;99.90
21672;DHT22;10997;52.242;8.168;2022-12-16T15:34:28;-1.70;99.90
21672;DHT22;10997;52.242;8.168;2022-12-16T15:39:48;-1.80;99.90
21672;DHT22;10997;52.242;8.168;2022-12-16T15:45:23;-2.00;99.90
21672;DHT22;10997;52.242;8.168;2022-12-16T15:50:51;-2.00;99.90
21672;DHT22;10997;52.242;8.168;2022-12-16T15:56:44;-2.10;99.90
21672;DHT22;10997;52.242;8.168;2022-12-16T16:07:35;-2.40;99.90
21672;DHT22;10997;52.242;8.168;2022-12-16T16:12:55;-2.60;99.90
21672;DHT22;10997;52.242;8.168;2022-12-16T16:18:14;-2.80;99.90
21672;DHT22;10997;52.242;8.168;2022-12-16T16:23:33;-2.80;99.90
21672;DHT22;10997;52.242;8.168;2022-12-16T16:28:52;-2.90;99.90
21672;DHT22;10997;52.242;8.168;2022-12-16T16:34:12;-3.00;99.90
21672;DHT22;10997;52.242;8.168;2022-12-16T16:39:30;-3.10;99.90
21672;DHT22;10997;52.242;8.168;2022-12-16T16:44:50;-3.20;99.90
21672;DHT22;10997;52.242;8.168;2022-12-16T16:50:13;-3.30;99.90
21672;DHT22;10997;52.242;8.168;2022-12-16T16:55:32;-3.40;99.90
21672;DHT22;10997;52.242;8.168;2022-12-16T17:00:52;-3.50;99.90
21672;DHT22;10997;52.242;8.168;2022-12-16T17:06:25;-3.50;99.90
21672;DHT22;10997;52.242;8.168;2022-12-16T17:11:44;-3.60;99.90
21672;DHT22;10997;52.242;8.168;2022-12-16T17:17:04;-3.70;99.90
21672;DHT22;10997;52.242;8.168;2022-12-16T17:22:23;-3.80;99.90
21672;DHT22;10997;52.242;8.168;2022-12-16T17:27:43;-3.90;99.90
21672;DHT22;10997;52.242;8.168;2022-12-16T17:33:03;-3.90;99.90
21672;DHT22;10997;52.242;8.168;2022-12-16T17:38:22;-4.00;99.90
21672;DHT22;10997;52.242;8.168;2022-12-16T17:43:42;-4.20;99.90
21672;DHT22;10997;52.242;8.168;2022-12-16T17:49:02;-4.30;99.90
21672;DHT22;10997;52.242;8.168;2022-12-16T17:54:21;-4.30;99.90
21672;DHT22;10997;52.242;8.168;2022-12-16T17:59:40;-4.50;99.90
21672;DHT22;10997;52.242;8.168;2022-12-16T18:04:59;-4.50;99.90
21672;DHT22;10997;52.242;8.168;2022-12-16T18:10:19;-4.50;99.90
21672;DHT22;10997;52.242;8.168;2022-12-16T18:15:42;-4.50;99.90
21672;DHT22;10997;52.242;8.168;2022-12-16T18:21:12;-4.60;99.90
21672;DHT22;10997;52.242;8.168;2022-12-16T18:26:31;-4.60;99.90
21672;DHT22;10997;52.242;8.168;2022-12-16T18:31:50;-4.70;99.90
21672;DHT22;10997;52.242;8.168;2022-12-16T18:37:11;-4.80;99.90
21672;DHT22;10997;52.242;8.168;2022-12-16T18:42:33;-4.90;99.90
21672;DHT22;10997;52.242;8.168;2022-12-16T18:47:53;-5.00;99.90
21672;DHT22;10997;52.242;8.168;2022-12-16T18:53:12;-5.00;99.90
21672;DHT22;10997;52.242;8.168;2022-12-16T18:58:34;-5.10;99.90
21672;DHT22;10997;52.242;8.168;2022-12-16T19:03:55;-5.10;99.90
21672;DHT22;10997;52.242;8.168;2022-12-16T19:09:14;-5.20;99.90
21672;DHT22;10997;52.242;8.168;2022-12-16T19:14:33;-5.20;99.90
21672;DHT22;10997;52.242;8.168;2022-12-16T19:19:52;-5.30;99.90
21672;DHT22;10997;52.242;8.168;2022-12-16T19:25:11;-5.30;99.90
21672;DHT22;10997;52.242;8.168;2022-12-16T19:30:30;-5.40;99.90
21672;DHT22;10997;52.242;8.168;2022-12-16T19:35:50;-5.40;99.90
21672;DHT22;10997;52.242;8.168;2022-12-16T19:41:15;-5.50;99.90
21672;DHT22;10997;52.242;8.168;2022-12-16T19:46:35;-5.50;99.90
21672;DHT22;10997;52.242;8.168;2022-12-16T19:51:54;-5.60;99.90
21672;DHT22;10997;52.242;8.168;2022-12-16T19:57:13;-5.60;99.90
21672;DHT22;10997;52.242;8.168;2022-12-16T20:02:32;-5.70;99.90
21672;DHT22;10997;52.242;8.168;2022-12-16T20:07:51;-5.60;99.90
21672;DHT22;10997;52.242;8.168;2022-12-16T20:13:12;-5.60;99.90
21672;DHT22;10997;52.242;8.168;2022-12-16T20:18:31;-5.70;99.90
21672;DHT22;10997;52.242;8.168;2022-12-16T20:23:50;-5.80;99.90
21672;DHT22;10997;52.242;8.168;2022-12-16T20:29:09;-5.80;99.90
21672;DHT22;10997;52.242;8.168;2022-12-16T20:34:28;-5.90;99.90
21672;DHT22;10997;52.242;8.168;2022-12-16T20:39:49;-6.00;99.90
21672;DHT22;10997;52.242;8.168;2022-12-16T20:45:09;-6.10;99.90
21672;DHT22;10997;52.242;8.168;2022-12-16T20:50:28;-6.10;99.90
21672;DHT22;10997;52.242;8.168;2022-12-16T20:55:47;-6.20;99.90
21672;DHT22;10997;52.242;8.168;2022-12-16T21:01:06;-6.20;99.90
21672;DHT22;10997;52.242;8.168;2022-12-16T21:06:26;-6.20;99.90
21672;DHT22;10997;52.242;8.168;2022-12-16T21:11:45;-6.30;99.90
21672;DHT22;10997;52.242;8.168;2022-12-16T21:17:04;-6.30;99.90
21672;DHT22;10997;52.242;8.168;2022-12-16T21:22:23;-6.40;99.90
21672;DHT22;10997;52.242;8.168;2022-12-16T21:27:42;-6.40;99.90
21672;DHT22;10997;52.242;8.168;2022-12-16T21:33:01;-6.40;99.90
21672;DHT22;10997;52.242;8.168;2022-12-16T21:38:20;-6.50;99.90
21672;DHT22;10997;52.242;8.168;2022-12-16T21:43:40;-6.60;99.90
21672;DHT22;10997;52.242;8.168;2022-12-16T21:48:59;-6.70;99.90
21672;DHT22;10997;52.242;8.168;2022-12-16T21:54:18;-6.70;99.90
21672;DHT22;10997;52.242;8.168;2022-12-16T21:59:37;-6.70;99.90
21672;DHT22;10997;52.242;8.168;2022-12-16T22:04:56;-6.80;99.90
21672;DHT22;10997;52.242;8.168;2022-12-16T22:10:16;-6.80;99.90
21672;DHT22;10997;52.242;8.168;2022-12-16T22:15:35;-6.80;99.90
21672;DHT22;10997;52.242;8.168;2022-12-16T22:20:58;-6.80;99.90
21672;DHT22;10997;52.242;8.168;2022-12-16T22:26:18;-6.90;99.90
21672;DHT22;10997;52.242;8.168;2022-12-16T22:31:37;-6.90;99.90
21672;DHT22;10997;52.242;8.168;2022-12-16T22:36:57;-7.00;99.90
21672;DHT22;10997;52.242;8.168;2022-12-16T22:42:16;-7.00;99.90
21672;DHT22;10997;52.242;8.168;2022-12-16T22:47:36;-7.10;99.90
21672;DHT22;10997;52.242;8.168;2022-12-16T22:52:55;-7.00;99.90
21672;DHT22;10997;52.242;8.168;2022-12-16T22:58:14;-7.10;99.90
21672;DHT22;10997;52.242;8.168;2022-12-16T23:03:33;-7.20;99.90
21672;DHT22;10997;52.242;8.168;2022-12-16T23:08:52;-7.20;99.90
21672;DHT22;10997;52.242;8.168;2022-12-16T23:14:11;-7.20;99.90
21672;DHT22;10997;52.242;8.168;2022-12-16T23:19:30;-7.10;99.90
21672;DHT22;10997;52.242;8.168;2022-12-16T23:24:49;-7.10;99.90
21672;DHT22;10997;52.242;8.168;2022-12-16T23:30:09;-7.10;99.90
21672;DHT22;10997;52.242;8.168;2022-12-16T23:35:28;-7.20;99.90
21672;DHT22;10997;52.242;8.168;2022-12-16T23:40:53;-7.20;99.90
21672;DHT22;10997;52.242;8.168;2022-12-16T23:46:12;-7.30;99.90
21672;DHT22;10997;52.242;8.168;2022-12-16T23:51:31;-7.40;99.90
21672;DHT22;10997;52.242;8.168;2022-12-16T23:57:10;-7.40;99.90
